Time;durP1;ratioP1;P1;durP2;ratioP2;P2;SDS_P1;SDS_P2;PMS_P1;PMS_P2;Temp;Humidity;BMP_temperature;BMP_pressure;BME280_temperature;BME280_humidity;BME280_pressure;Samples;Min_cycle;Max_cycle;Signal;HPM_P1;HPM_P2
2023/01/11 00:01:45;;;;;;;5.90;1.70;;;6.90;99.90;;;;;;5092677;28;20416;-64
2023/01/11 00:04:12;;;;;;;2.78;1.17;;;6.90;99.90;;;;;;5092219;28;20858;-65
2023/01/11 00:06:38;;;;;;;4.18;1.42;;;6.90;99.90;;;;;;5092456;28;20402;-65
2023/01/11 00:09:05;;;;;;;2.90;1.10;;;7.00;99.90;;;;;;5092510;28;20410;-65
2023/01/11 00:11:32;;;;;;;3.28;1.60;;;7.00;99.90;;;;;;5092382;28;20413;-65
2023/01/11 00:13:59;;;;;;;2.67;1.50;;;7.00;99.90;;;;;;5092625;28;20406;-64
2023/01/11 00:16:25;;;;;;;2.45;1.38;;;7.00;99.90;;;;;;5092222;28;20471;-63
2023/01/11 00:18:54;;;;;;;3.85;1.65;;;7.00;99.90;;;;;;5092544;28;20414;-64
2023/01/11 00:21:21;;;;;;;3.23;1.30;;;7.00;99.90;;;;;;5092478;28;20494;-63
2023/01/11 00:23:49;;;;;;;2.60;1.30;;;7.10;99.90;;;;;;5092845;28;20417;-66
2023/01/11 00:26:16;;;;;;;2.65;1.30;;;7.00;99.90;;;;;;5093701;28;20405;-64
2023/01/11 00:28:43;;;;;;;3.10;1.40;;;7.10;99.90;;;;;;5096319;28;20508;-65
2023/01/11 00:31:10;;;;;;;3.10;1.52;;;7.10;99.90;;;;;;5096830;28;20420;-65
2023/01/11 00:33:36;;;;;;;1.75;1.30;;;7.10;99.90;;;;;;5096428;28;20406;-64
2023/01/11 00:36:05;;;;;;;2.88;1.30;;;7.20;99.90;;;;;;5096303;28;20429;-64
2023/01/11 00:38:45;;;;;;;3.70;1.20;;;7.20;99.90;;;;;;5096752;28;20866;-64
2023/01/11 00:49:37;;;;;;;2.22;1.20;;;7.20;99.90;;;;;;5086412;28;20417;-63
2023/01/11 00:52:07;;;;;;;2.80;1.10;;;7.20;99.90;;;;;;5096148;28;20498;-64
2023/01/11 00:54:34;;;;;;;2.83;1.10;;;7.20;99.90;;;;;;5095778;28;20491;-63
2023/01/11 00:57:02;;;;;;;2.15;1.40;;;7.30;99.90;;;;;;5095477;28;20921;-63
2023/01/11 00:59:28;;;;;;;2.70;1.27;;;7.30;99.90;;;;;;5096301;28;20405;-64
2023/01/11 01:01:55;;;;;;;1.73;1.00;;;7.30;99.90;;;;;;5096353;28;20420;-63
2023/01/11 01:04:22;;;;;;;2.10;1.27;;;7.30;99.90;;;;;;5095957;28;20441;-64
2023/01/11 01:06:49;;;;;;;2.53;1.50;;;7.30;99.90;;;;;;5095832;28;20436;-64
2023/01/11 01:09:17;;;;;;;1.60;1.00;;;7.30;99.90;;;;;;5096002;28;20405;-64
2023/01/11 01:11:44;;;;;;;3.92;1.20;;;7.30;99.90;;;;;;5095967;28;20422;-64
2023/01/11 01:14:27;;;;;;;2.05;1.20;;;7.30;99.90;;;;;;5095835;28;20414;-64
2023/01/11 01:16:55;;;;;;;2.40;1.15;;;7.40;99.90;;;;;;5095286;28;20421;-64
2023/01/11 01:19:22;;;;;;;1.92;1.10;;;7.40;99.90;;;;;;5096176;28;20432;-64
2023/01/11 01:21:49;;;;;;;3.05;1.10;;;7.40;99.90;;;;;;5097267;28;20417;-64
2023/01/11 01:24:17;;;;;;;1.83;0.95;;;7.40;99.90;;;;;;5096197;28;20527;-64
2023/01/11 01:26:44;;;;;;;1.40;0.90;;;7.40;99.90;;;;;;5096632;28;20450;-63
2023/01/11 01:29:13;;;;;;;2.30;1.15;;;7.40;99.90;;;;;;5096242;28;20425;-65
2023/01/11 01:31:40;;;;;;;1.83;1.10;;;7.40;99.90;;;;;;5096127;28;20461;-64
2023/01/11 01:34:07;;;;;;;1.33;0.90;;;7.40;99.90;;;;;;5096332;28;20905;-65
2023/01/11 01:36:34;;;;;;;3.30;1.30;;;7.40;99.90;;;;;;5095745;28;20505;-63
2023/01/11 01:39:02;;;;;;;1.60;1.13;;;7.40;99.90;;;;;;5094349;28;20496;-63
2023/01/11 01:41:30;;;;;;;2.40;1.20;;;7.40;99.90;;;;;;5094894;28;20406;-64
2023/01/11 01:43:59;;;;;;;1.48;1.10;;;7.40;99.90;;;;;;5095325;28;20417;-63
2023/01/11 01:46:28;;;;;;;2.50;1.00;;;7.40;99.90;;;;;;5094954;28;20413;-63
2023/01/11 01:49:00;;;;;;;1.80;1.10;;;7.40;99.90;;;;;;5095138;28;20419;-64
2023/01/11 01:51:32;;;;;;;2.15;1.20;;;7.40;99.90;;;;;;5094519;28;20758;-64
2023/01/11 01:54:03;;;;;;;2.60;1.20;;;7.40;99.90;;;;;;5094495;28;20917;-63
2023/01/11 01:56:35;;;;;;;2.08;1.20;;;7.40;99.90;;;;;;5094567;28;20437;-64
2023/01/11 01:59:06;;;;;;;1.40;1.00;;;7.40;99.90;;;;;;5094955;28;20421;-64
2023/01/11 02:01:48;;;;;;;2.55;1.00;;;7.40;99.90;;;;;;5094818;28;20441;-64
2023/01/11 02:04:21;;;;;;;1.52;1.00;;;7.30;99.90;;;;;;5094373;28;20886;-63
2023/01/11 02:06:49;;;;;;;1.80;1.20;;;7.30;99.90;;;;;;5095265;28;20413;-62
2023/01/11 02:09:25;;;;;;;2.10;1.20;;;7.30;99.90;;;;;;5094731;28;20777;-63
2023/01/11 02:11:55;;;;;;;2.50;1.30;;;7.30;99.90;;;;;;5094943;28;20537;-63
2023/01/11 02:14:23;;;;;;;2.78;1.27;;;7.30;99.90;;;;;;5094800;28;20476;-63
2023/01/11 02:16:50;;;;;;;2.75;1.40;;;7.30;99.90;;;;;;5095456;28;20876;-63
2023/01/11 02:19:28;;;;;;;1.70;1.20;;;7.30;99.90;;;;;;5095063;28;20406;-63
2023/01/11 02:22:14;;;;;;;1.88;1.25;;;7.30;99.90;;;;;;5094634;28;20869;-63
2023/01/11 02:25:16;;;;;;;2.47;1.10;;;7.30;99.90;;;;;;5094472;28;21005;-63
2023/01/11 02:28:08;;;;;;;3.85;1.10;;;7.30;99.90;;;;;;5094393;28;20406;-63
2023/01/11 02:30:44;;;;;;;1.60;1.05;;;7.40;99.90;;;;;;5088508;28;20452;-63
2023/01/11 02:33:20;;;;;;;2.40;1.30;;;7.40;99.90;;;;;;5094084;28;20409;-63
2023/01/11 02:35:56;;;;;;;2.60;1.10;;;7.40;99.90;;;;;;5094068;28;20459;-63
2023/01/11 02:38:29;;;;;;;1.90;1.10;;;7.40;99.90;;;;;;5093794;28;20924;-63
2023/01/11 02:41:05;;;;;;;2.08;1.20;;;7.40;99.90;;;;;;5094642;28;20414;-64
2023/01/11 02:46:35;;;;;;;3.40;1.20;;;7.40;99.90;;;;;;5094074;28;20480;-64
2023/01/11 02:49:09;;;;;;;2.83;1.10;;;7.40;99.90;;;;;;5093147;28;20414;-64
2023/01/11 02:51:40;;;;;;;2.50;1.33;;;7.40;99.90;;;;;;5093272;28;20506;-64
2023/01/11 02:54:09;;;;;;;1.80;1.25;;;7.50;99.90;;;;;;5093408;28;20455;-64
2023/01/11 02:56:39;;;;;;;2.70;1.30;;;7.50;99.90;;;;;;5093400;28;20438;-64
2023/01/11 02:59:10;;;;;;;2.35;1.05;;;7.50;99.90;;;;;;5093386;28;20424;-65
2023/01/11 03:01:45;;;;;;;3.78;1.30;;;7.50;99.90;;;;;;5093485;28;20421;-64
2023/01/11 03:04:26;;;;;;;1.60;1.00;;;7.50;99.90;;;;;;5093176;28;20417;-63
2023/01/11 03:07:04;;;;;;;3.25;1.20;;;7.60;99.90;;;;;;5093198;28;20877;-64
2023/01/11 03:09:43;;;;;;;2.33;1.40;;;7.60;99.90;;;;;;5093094;28;20414;-64
2023/01/11 03:15:29;;;;;;;2.57;1.00;;;7.60;99.90;;;;;;5093220;28;21023;-63
2023/01/11 03:18:07;;;;;;;2.00;1.30;;;7.60;99.90;;;;;;5092633;28;20432;-64
2023/01/11 03:20:37;;;;;;;2.10;1.20;;;7.60;99.90;;;;;;5092983;28;20405;-64
2023/01/11 03:23:14;;;;;;;1.90;0.98;;;7.70;99.90;;;;;;5092846;28;20406;-64
2023/01/11 03:25:56;;;;;;;1.80;1.10;;;7.70;99.90;;;;;;5092815;28;20929;-64
2023/01/11 03:28:37;;;;;;;1.73;1.07;;;7.70;99.90;;;;;;5093028;28;20462;-64
2023/01/11 03:31:14;;;;;;;2.00;1.40;;;7.70;99.90;;;;;;5093189;28;20846;-64
2023/01/11 03:33:46;;;;;;;2.40;1.37;;;7.70;99.90;;;;;;5092843;28;20414;-64
2023/01/11 03:36:20;;;;;;;1.58;0.93;;;7.70;99.90;;;;;;5092725;28;20434;-62
2023/01/11 03:38:50;;;;;;;2.20;1.20;;;7.80;99.90;;;;;;5092744;28;20885;-64
2023/01/11 03:41:21;;;;;;;2.30;1.00;;;7.80;99.90;;;;;;5093112;28;20450;-64
2023/01/11 03:43:50;;;;;;;2.07;1.30;;;7.80;99.90;;;;;;5092787;28;20414;-63
2023/01/11 03:46:22;;;;;;;2.40;1.40;;;7.80;99.90;;;;;;5092532;28;20416;-63
2023/01/11 03:48:53;;;;;;;1.33;0.98;;;7.80;99.90;;;;;;5092806;28;20418;-63
2023/01/11 03:51:26;;;;;;;1.53;1.00;;;7.80;99.90;;;;;;5092848;28;20464;-64
2023/01/11 03:53:57;;;;;;;1.83;1.20;;;7.90;99.90;;;;;;5092412;28;20537;-63
2023/01/11 03:56:30;;;;;;;2.60;1.00;;;7.90;99.90;;;;;;5092758;28;20462;-63
2023/01/11 03:58:57;;;;;;;2.80;1.20;;;7.90;99.90;;;;;;5092459;28;20436;-63
2023/01/11 04:01:26;;;;;;;1.90;1.15;;;7.90;99.90;;;;;;5092091;28;20417;-63
2023/01/11 04:03:53;;;;;;;2.30;1.10;;;7.90;99.90;;;;;;5092336;28;20525;-63
2023/01/11 04:06:20;;;;;;;1.55;0.98;;;8.00;99.90;;;;;;5092404;28;20413;-62
2023/01/11 04:10:57;;;;;;;2.88;1.40;;;8.00;99.90;;;;;;5090433;28;20353;-64
2023/01/11 04:13:23;;;;;;;2.50;1.00;;;8.00;99.90;;;;;;5090015;28;20422;-65
2023/01/11 04:15:52;;;;;;;3.55;1.48;;;8.00;99.90;;;;;;5089675;28;20422;-64
2023/01/11 04:18:19;;;;;;;2.00;0.93;;;8.00;99.90;;;;;;5089405;28;20418;-64
2023/01/11 04:20:46;;;;;;;1.50;1.10;;;8.00;99.90;;;;;;5089393;28;20418;-64
2023/01/11 04:23:13;;;;;;;1.65;1.30;;;8.10;99.90;;;;;;5113606;22;20430;-63
2023/01/11 04:25:40;;;;;;;1.80;1.30;;;8.10;99.90;;;;;;5089083;28;20824;-64
2023/01/11 04:28:08;;;;;;;2.15;1.42;;;8.10;99.90;;;;;;5089131;28;20407;-62
2023/01/11 04:30:36;;;;;;;1.65;1.02;;;8.10;99.90;;;;;;5088936;28;20430;-62
2023/01/11 04:33:03;;;;;;;2.33;1.10;;;8.10;99.90;;;;;;5088637;28;20433;-62
2023/01/11 04:35:29;;;;;;;2.13;1.30;;;8.10;99.90;;;;;;5089195;28;20403;-63
2023/01/11 04:37:57;;;;;;;2.20;1.20;;;8.20;99.90;;;;;;5089533;28;20415;-62
2023/01/11 04:40:24;;;;;;;2.00;1.10;;;8.20;99.90;;;;;;5090755;28;20485;-64
2023/01/11 04:42:50;;;;;;;1.70;1.10;;;8.20;99.90;;;;;;5089866;28;20427;-62
2023/01/11 04:45:19;;;;;;;1.67;1.20;;;8.20;99.90;;;;;;5091960;28;20419;-62
2023/01/11 04:47:46;;;;;;;2.40;1.10;;;8.20;99.90;;;;;;5090380;28;20794;-62
2023/01/11 04:50:13;;;;;;;2.00;1.20;;;8.20;99.90;;;;;;5090012;28;20422;-60
2023/01/11 04:52:40;;;;;;;3.33;1.63;;;8.20;99.90;;;;;;5089301;28;20411;-62
2023/01/11 04:55:08;;;;;;;3.10;1.20;;;8.20;99.90;;;;;;5088994;28;20908;-61
2023/01/11 04:57:34;;;;;;;2.50;1.20;;;8.20;99.90;;;;;;5088795;28;20485;-61
2023/01/11 05:00:03;;;;;;;3.30;1.20;;;8.20;99.90;;;;;;5088823;28;20407;-60
2023/01/11 05:02:31;;;;;;;2.40;1.30;;;8.30;99.90;;;;;;5089468;28;20418;-62
2023/01/11 05:04:58;;;;;;;2.30;1.30;;;8.30;99.90;;;;;;5089469;28;20425;-63
2023/01/11 05:07:25;;;;;;;2.70;1.25;;;8.30;99.90;;;;;;5089932;28;20410;-62
2023/01/11 05:09:52;;;;;;;2.10;1.60;;;8.30;99.90;;;;;;5086765;28;20518;-63
2023/01/11 05:12:19;;;;;;;1.80;1.30;;;8.30;99.90;;;;;;5089278;28;20593;-62
2023/01/11 05:14:46;;;;;;;1.60;1.17;;;8.30;99.90;;;;;;5087438;28;20431;-62
2023/01/11 05:17:14;;;;;;;2.20;1.47;;;8.20;99.90;;;;;;5089507;28;20999;-62
2023/01/11 05:19:43;;;;;;;1.95;1.30;;;8.20;99.90;;;;;;5087314;28;20910;-63
2023/01/11 05:22:10;;;;;;;2.80;1.67;;;8.20;99.90;;;;;;5075401;28;20526;-61
2023/01/11 05:24:37;;;;;;;2.55;1.20;;;8.10;99.90;;;;;;5074741;28;20431;-63
2023/01/11 05:27:04;;;;;;;2.40;1.40;;;8.10;99.90;;;;;;5070700;28;20935;-63
2023/01/11 05:29:31;;;;;;;2.60;1.50;;;8.10;99.90;;;;;;5075047;28;20438;-62
2023/01/11 05:31:58;;;;;;;2.75;1.73;;;8.10;99.90;;;;;;5075214;28;20412;-63
2023/01/11 05:34:25;;;;;;;2.20;1.20;;;8.10;99.90;;;;;;5074890;28;20419;-61
2023/01/11 05:36:53;;;;;;;3.50;1.63;;;8.10;99.90;;;;;;5074828;28;20417;-63
2023/01/11 05:39:21;;;;;;;1.80;1.40;;;8.10;99.90;;;;;;5073587;28;20427;-62
2023/01/11 05:41:48;;;;;;;2.65;1.25;;;8.10;99.90;;;;;;5074704;28;20468;-64
2023/01/11 05:47:14;;;;;;;2.20;1.20;;;8.10;99.90;;;;;;5011783;28;20878;-63
2023/01/11 05:49:41;;;;;;;1.67;1.30;;;8.10;99.90;;;;;;5009639;28;20436;-64
2023/01/11 05:52:09;;;;;;;3.40;1.30;;;8.10;99.90;;;;;;5038330;28;20428;-60
2023/01/11 05:54:36;;;;;;;1.98;1.27;;;8.10;99.90;;;;;;5073621;28;20438;-64
2023/01/11 05:57:02;;;;;;;2.13;0.90;;;8.10;99.90;;;;;;5074625;28;20419;-62
2023/01/11 05:59:29;;;;;;;1.63;1.20;;;8.10;99.90;;;;;;5074516;28;20449;-62
2023/01/11 06:01:56;;;;;;;2.15;1.45;;;8.10;99.90;;;;;;5073128;28;20923;-62
2023/01/11 06:04:23;;;;;;;3.60;1.50;;;8.10;99.90;;;;;;5073720;28;20927;-63
2023/01/11 06:06:50;;;;;;;2.00;1.25;;;8.10;99.90;;;;;;5075032;28;20435;-62
2023/01/11 06:09:18;;;;;;;2.47;1.60;;;8.00;99.90;;;;;;5072206;28;20430;-61
2023/01/11 06:11:45;;;;;;;3.60;1.42;;;8.00;99.90;;;;;;5073130;28;20448;-61
2023/01/11 06:14:12;;;;;;;3.42;1.50;;;8.00;99.90;;;;;;5074716;28;20845;-61
2023/01/11 06:16:38;;;;;;;2.50;1.50;;;8.00;99.90;;;;;;5075973;28;20423;-62
2023/01/11 06:19:05;;;;;;;2.55;1.20;;;8.00;99.90;;;;;;5076422;28;20500;-61
2023/01/11 06:21:32;;;;;;;2.60;1.40;;;7.90;99.90;;;;;;5073278;28;20440;-60
2023/01/11 06:24:00;;;;;;;3.35;1.23;;;7.90;99.90;;;;;;5073342;28;20560;-62
2023/01/11 06:26:28;;;;;;;1.83;1.40;;;7.90;99.90;;;;;;5073252;28;20416;-62
2023/01/11 06:28:54;;;;;;;2.25;1.85;;;7.90;99.90;;;;;;5073102;28;20527;-61
2023/01/11 06:31:21;;;;;;;2.67;1.42;;;7.80;99.90;;;;;;5072850;28;20463;-62
2023/01/11 06:33:48;;;;;;;3.37;1.63;;;7.80;99.90;;;;;;5071649;28;20442;-63
2023/01/11 06:36:15;;;;;;;2.20;1.40;;;7.80;99.90;;;;;;5072252;28;20941;-62
2023/01/11 06:38:43;;;;;;;3.25;1.40;;;7.80;99.90;;;;;;5071643;28;20431;-64
2023/01/11 06:41:11;;;;;;;2.92;1.60;;;7.80;99.90;;;;;;5067756;28;20414;-63
2023/01/11 06:43:43;;;;;;;1.88;1.40;;;7.80;99.90;;;;;;5053745;28;20423;-62
2023/01/11 06:46:11;;;;;;;2.30;1.50;;;7.80;99.90;;;;;;5065947;28;20447;-63
2023/01/11 06:48:38;;;;;;;2.10;1.40;;;7.90;99.90;;;;;;5065798;28;20471;-64
2023/01/11 06:51:05;;;;;;;2.00;1.30;;;7.90;99.90;;;;;;5060791;28;20438;-62
2023/01/11 06:53:32;;;;;;;1.52;1.20;;;7.90;99.90;;;;;;5072038;28;20515;-63
2023/01/11 06:55:59;;;;;;;2.30;1.38;;;7.90;99.90;;;;;;5073403;28;20445;-63
2023/01/11 06:58:26;;;;;;;2.30;1.30;;;7.90;99.90;;;;;;5073267;28;20506;-61
2023/01/11 07:00:56;;;;;;;2.47;1.45;;;7.90;99.90;;;;;;5072379;28;20515;-61
2023/01/11 07:03:23;;;;;;;2.30;1.70;;;7.90;99.90;;;;;;5071304;28;20506;-64
2023/01/11 07:05:51;;;;;;;2.92;1.20;;;7.90;99.90;;;;;;5072430;28;20407;-64
2023/01/11 07:08:18;;;;;;;2.10;1.40;;;7.90;99.90;;;;;;5073207;28;20459;-63
2023/01/11 07:10:45;;;;;;;2.40;1.45;;;7.90;99.90;;;;;;5074496;28;20439;-62
2023/01/11 07:13:14;;;;;;;1.35;1.13;;;7.90;99.90;;;;;;5073760;28;20418;-62
2023/01/11 07:15:42;;;;;;;2.97;1.20;;;8.00;99.90;;;;;;5072972;28;20415;-62
2023/01/11 07:18:11;;;;;;;3.55;1.30;;;8.00;99.90;;;;;;5072612;28;20422;-63
2023/01/11 07:20:38;;;;;;;1.63;1.40;;;8.00;99.90;;;;;;5074410;28;20911;-65
2023/01/11 07:23:06;;;;;;;1.80;1.10;;;8.00;99.90;;;;;;5071659;28;20917;-65
2023/01/11 07:25:34;;;;;;;1.10;0.98;;;8.00;99.90;;;;;;5071578;28;20431;-64
2023/01/11 07:28:02;;;;;;;1.30;1.08;;;8.00;99.90;;;;;;5071342;28;20515;-61
2023/01/11 07:30:36;;;;;;;1.45;1.00;;;8.00;99.90;;;;;;5071932;28;20435;-66
2023/01/11 07:33:05;;;;;;;1.88;1.48;;;8.00;99.90;;;;;;5072371;28;20478;-64
2023/01/11 07:35:33;;;;;;;2.70;1.90;;;8.00;99.90;;;;;;5071333;28;20526;-63
2023/01/11 07:38:01;;;;;;;1.42;0.98;;;8.00;99.90;;;;;;5069934;28;20427;-64
2023/01/11 07:40:28;;;;;;;1.60;0.90;;;8.00;99.90;;;;;;5056590;28;20431;-64
2023/01/11 07:43:17;;;;;;;2.95;1.13;;;8.00;99.90;;;;;;5072589;28;20415;-63
2023/01/11 07:45:47;;;;;;;1.08;0.90;;;8.00;99.90;;;;;;5073382;28;20451;-64
2023/01/11 07:48:19;;;;;;;2.10;1.30;;;8.00;99.90;;;;;;5072516;28;20500;-63
2023/01/11 07:50:48;;;;;;;1.90;1.00;;;8.00;99.90;;;;;;5073007;28;20514;-64
2023/01/11 07:53:14;;;;;;;1.10;0.85;;;8.00;99.90;;;;;;5071659;28;20469;-62
2023/01/11 07:55:42;;;;;;;1.20;0.90;;;8.00;99.90;;;;;;5078768;28;20420;-61
2023/01/11 07:58:11;;;;;;;1.50;0.90;;;8.00;99.90;;;;;;5072469;28;20451;-60
2023/01/11 08:00:39;;;;;;;3.20;1.40;;;8.10;99.90;;;;;;5072144;28;20803;-61
2023/01/11 08:03:06;;;;;;;1.73;1.20;;;8.10;99.90;;;;;;5072084;28;20451;-60
2023/01/11 08:05:36;;;;;;;2.15;1.30;;;8.10;99.90;;;;;;5069600;28;20431;-62
2023/01/11 08:08:05;;;;;;;3.00;1.38;;;8.10;99.90;;;;;;5071684;28;20775;-62
2023/01/11 08:10:32;;;;;;;2.80;1.00;;;8.10;99.90;;;;;;5072224;28;20521;-60
2023/01/11 08:15:43;;;;;;;1.85;1.30;;;8.10;99.90;;;;;;5070912;28;20972;-61
2023/01/11 08:18:11;;;;;;;1.40;0.90;;;8.10;99.90;;;;;;5072001;28;20498;-61
2023/01/11 08:20:38;;;;;;;1.92;1.30;;;8.20;99.90;;;;;;5072533;28;20482;-61
2023/01/11 08:23:09;;;;;;;1.83;1.10;;;8.20;99.90;;;;;;5071830;28;21001;-61
2023/01/11 08:25:36;;;;;;;1.70;1.20;;;8.20;99.90;;;;;;5072085;28;20430;-59
2023/01/11 08:28:05;;;;;;;1.90;0.90;;;8.30;99.90;;;;;;5072180;28;20995;-61
2023/01/11 08:30:32;;;;;;;1.60;1.00;;;8.30;99.90;;;;;;5070790;28;20993;-62
2023/01/11 08:33:01;;;;;;;1.73;0.90;;;8.30;99.90;;;;;;5072004;28;20911;-61
2023/01/11 08:35:28;;;;;;;1.50;0.90;;;8.30;99.90;;;;;;5071938;28;20914;-63
2023/01/11 08:37:55;;;;;;;1.33;0.80;;;8.40;99.90;;;;;;5075600;28;20419;-65
2023/01/11 08:40:29;;;;;;;1.60;0.70;;;8.40;99.90;;;;;;5071822;28;20879;-64
2023/01/11 08:42:56;;;;;;;1.70;0.90;;;8.50;99.90;;;;;;5071648;28;20425;-63
2023/01/11 08:45:23;;;;;;;1.67;0.90;;;8.50;99.90;;;;;;5071417;28;20412;-64
2023/01/11 08:47:50;;;;;;;1.10;0.80;;;8.60;99.90;;;;;;5072078;28;20415;-65
2023/01/11 08:50:18;;;;;;;1.00;0.70;;;8.60;99.90;;;;;;5071317;28;20457;-64
2023/01/11 08:52:48;;;;;;;1.00;0.90;;;8.70;99.90;;;;;;5071818;28;20423;-63
2023/01/11 08:55:15;;;;;;;1.17;0.70;;;8.80;99.90;;;;;;5071726;28;20842;-63
2023/01/11 08:57:43;;;;;;;1.88;0.85;;;8.80;99.90;;;;;;5075242;28;20767;-67
2023/01/11 09:00:11;;;;;;;0.90;0.65;;;8.90;99.90;;;;;;5075833;28;20775;-64
2023/01/11 09:02:38;;;;;;;0.90;0.50;;;8.90;99.90;;;;;;5075575;28;20412;-63
2023/01/11 09:05:06;;;;;;;0.85;0.68;;;8.90;99.90;;;;;;5075806;28;20421;-65
2023/01/11 09:07:33;;;;;;;1.00;0.70;;;8.90;99.90;;;;;;5075225;28;20421;-62
2023/01/11 09:09:59;;;;;;;1.60;0.70;;;8.90;99.90;;;;;;5075457;28;20416;-63
2023/01/11 09:12:26;;;;;;;1.73;0.80;;;8.90;99.90;;;;;;5075319;28;20422;-62
2023/01/11 09:14:55;;;;;;;1.92;0.90;;;8.90;99.90;;;;;;5075011;28;20488;-61
2023/01/11 09:17:21;;;;;;;2.00;1.08;;;8.90;99.90;;;;;;5074904;28;20419;-64
2023/01/11 09:19:57;;;;;;;2.10;1.20;;;9.00;99.90;;;;;;5077077;28;20414;-70
2023/01/11 09:22:43;;;;;;;1.50;1.05;;;9.00;99.90;;;;;;5076621;28;20414;-62
2023/01/11 09:25:10;;;;;;;4.32;1.98;;;9.10;99.90;;;;;;5074602;28;20419;-62
2023/01/11 09:27:37;;;;;;;1.92;1.10;;;9.10;99.90;;;;;;5074638;28;20490;-61
2023/01/11 09:30:06;;;;;;;0.90;0.60;;;9.20;99.90;;;;;;5074357;28;20510;-60
2023/01/11 09:32:33;;;;;;;1.63;0.90;;;9.30;99.90;;;;;;5074691;28;20458;-61
2023/01/11 09:35:00;;;;;;;1.50;1.10;;;9.30;99.90;;;;;;5074529;28;20418;-62
2023/01/11 09:37:27;;;;;;;1.30;0.90;;;9.40;99.90;;;;;;5074323;28;20451;-60
2023/01/11 09:39:54;;;;;;;1.70;0.82;;;9.40;99.90;;;;;;5074179;28;20439;-61
2023/01/11 09:42:36;;;;;;;1.50;1.10;;;9.40;99.90;;;;;;5074251;28;20775;-61
2023/01/11 09:45:12;;;;;;;1.93;0.80;;;9.50;99.90;;;;;;5073968;28;20851;-60
2023/01/11 09:47:42;;;;;;;2.10;1.00;;;9.50;99.90;;;;;;5074782;28;20477;-60
2023/01/11 09:50:16;;;;;;;2.00;0.80;;;9.50;99.90;;;;;;5073982;28;20490;-60
2023/01/11 09:52:46;;;;;;;1.67;0.80;;;9.50;99.90;;;;;;5073788;28;20454;-61
2023/01/11 09:55:18;;;;;;;1.52;0.70;;;9.50;99.90;;;;;;5074389;28;20787;-61
2023/01/11 09:57:55;;;;;;;2.30;1.00;;;9.50;99.90;;;;;;5073912;28;20428;-58
2023/01/11 10:00:32;;;;;;;1.30;0.80;;;9.60;99.90;;;;;;5073787;28;20414;-62
2023/01/11 10:03:16;;;;;;;1.30;0.50;;;9.60;99.90;;;;;;5073413;28;20929;-62
2023/01/11 10:06:00;;;;;;;1.50;0.70;;;9.70;99.90;;;;;;5074042;28;20411;-62
2023/01/11 10:08:44;;;;;;;1.17;0.88;;;9.70;99.90;;;;;;5074083;28;20420;-62
2023/01/11 10:11:27;;;;;;;2.50;0.80;;;9.70;99.90;;;;;;5073905;28;20546;-59
2023/01/11 10:14:28;;;;;;;1.63;1.20;;;9.80;99.90;;;;;;5075169;28;20423;-66
2023/01/11 10:17:03;;;;;;;1.90;1.40;;;9.80;99.90;;;;;;5027070;28;20443;-62
2023/01/11 10:19:38;;;;;;;2.05;1.20;;;9.80;99.90;;;;;;5073315;28;20415;-62
2023/01/11 10:22:11;;;;;;;2.20;1.20;;;9.70;99.90;;;;;;5099772;22;20438;-65
2023/01/11 10:24:42;;;;;;;1.17;0.70;;;9.70;99.90;;;;;;5075773;28;20454;-67
2023/01/11 10:27:19;;;;;;;1.02;0.80;;;9.80;99.90;;;;;;5074882;28;20447;-65
2023/01/11 10:29:57;;;;;;;1.50;1.00;;;9.80;99.90;;;;;;5074720;28;20620;-65
2023/01/11 10:32:51;;;;;;;1.90;1.08;;;9.80;99.90;;;;;;5078897;28;20821;-64
2023/01/11 10:35:40;;;;;;;1.40;1.05;;;9.90;99.90;;;;;;5095913;28;20417;-65
2023/01/11 10:38:29;;;;;;;1.75;0.70;;;9.90;99.90;;;;;;5095825;28;20422;-66
2023/01/11 10:41:14;;;;;;;1.58;0.70;;;9.80;99.90;;;;;;5096621;28;20410;-65
2023/01/11 10:43:46;;;;;;;3.60;1.50;;;9.80;99.90;;;;;;5095990;28;20414;-65
2023/01/11 10:46:16;;;;;;;1.60;1.20;;;9.90;99.90;;;;;;5095900;28;20481;-65
2023/01/11 10:48:46;;;;;;;1.30;0.90;;;9.90;99.90;;;;;;5095255;28;20842;-64
2023/01/11 10:51:26;;;;;;;0.90;0.70;;;10.00;99.90;;;;;;5095142;28;20422;-65
2023/01/11 10:54:11;;;;;;;1.40;0.70;;;10.00;99.90;;;;;;5095319;28;20416;-64
2023/01/11 10:56:54;;;;;;;1.20;0.70;;;10.00;99.90;;;;;;5094707;28;20417;-65
2023/01/11 10:59:42;;;;;;;0.80;0.57;;;10.00;99.90;;;;;;5094797;28;20414;-65
2023/01/11 11:02:19;;;;;;;0.80;0.60;;;10.00;99.90;;;;;;5094078;28;20512;-63
2023/01/11 11:05:00;;;;;;;1.52;0.80;;;9.90;99.90;;;;;;5094560;28;20441;-66
2023/01/11 11:07:36;;;;;;;2.60;0.90;;;9.90;99.90;;;;;;5094390;28;20414;-64
2023/01/11 11:10:10;;;;;;;1.10;0.80;;;9.90;99.90;;;;;;5094769;28;20877;-63
2023/01/11 11:12:40;;;;;;;1.10;0.85;;;9.90;99.90;;;;;;5094314;28;20717;-64
2023/01/11 11:15:13;;;;;;;2.70;1.50;;;9.90;99.90;;;;;;5094467;28;20482;-63
2023/01/11 11:17:45;;;;;;;1.95;0.80;;;9.80;99.90;;;;;;5094557;28;20544;-65
2023/01/11 11:20:16;;;;;;;1.00;0.60;;;9.80;99.90;;;;;;5094370;28;20413;-64
2023/01/11 11:22:44;;;;;;;2.08;1.00;;;9.90;99.90;;;;;;5094511;28;20440;-65
2023/01/11 11:25:16;;;;;;;1.30;0.70;;;9.90;99.90;;;;;;5094579;28;20413;-65
2023/01/11 11:27:47;;;;;;;2.80;1.05;;;9.90;99.90;;;;;;5093809;28;20416;-64
2023/01/11 11:30:25;;;;;;;1.50;0.70;;;9.90;99.90;;;;;;5094355;28;20441;-64
2023/01/11 11:32:55;;;;;;;1.30;0.90;;;9.90;99.90;;;;;;5094283;28;20940;-64
2023/01/11 11:35:39;;;;;;;1.10;0.88;;;9.90;99.90;;;;;;5094640;28;20418;-65
2023/01/11 11:38:06;;;;;;;1.88;1.10;;;9.90;99.90;;;;;;5094363;28;20497;-65
2023/01/11 11:40:35;;;;;;;1.92;1.40;;;9.90;99.90;;;;;;5094847;28;20450;-64
2023/01/11 11:43:19;;;;;;;3.00;1.77;;;9.80;99.90;;;;;;5094359;28;20829;-64
2023/01/11 11:45:54;;;;;;;3.42;2.05;;;9.80;99.90;;;;;;5094710;28;20412;-65
2023/01/11 11:48:22;;;;;;;2.45;1.90;;;9.70;99.90;;;;;;5094389;28;20456;-64
2023/01/11 11:50:52;;;;;;;2.10;1.80;;;9.70;99.90;;;;;;5094053;28;20425;-63
2023/01/11 11:53:37;;;;;;;3.03;1.83;;;9.70;99.90;;;;;;5094597;28;20410;-65
2023/01/11 11:56:16;;;;;;;2.40;1.77;;;9.60;99.90;;;;;;5094457;28;20418;-64
2023/01/11 11:58:44;;;;;;;3.25;2.30;;;9.60;99.90;;;;;;5095363;28;20424;-64
2023/01/11 12:01:25;;;;;;;3.13;2.20;;;9.60;99.90;;;;;;5093954;28;20436;-63
2023/01/11 12:03:55;;;;;;;3.30;2.20;;;9.50;99.90;;;;;;5093866;28;20409;-64
2023/01/11 12:06:26;;;;;;;5.75;3.35;;;9.50;99.90;;;;;;5095257;28;20463;-65
2023/01/11 12:08:54;;;;;;;4.00;3.00;;;9.50;99.90;;;;;;5093984;28;20457;-64
2023/01/11 12:11:28;;;;;;;4.07;2.65;;;9.50;99.90;;;;;;5093947;28;20520;-65
2023/01/11 12:14:15;;;;;;;3.15;2.00;;;9.50;99.90;;;;;;5093582;28;20915;-65
2023/01/11 12:16:43;;;;;;;4.25;3.67;;;9.50;99.90;;;;;;5094184;28;20505;-65
2023/01/11 12:19:30;;;;;;;4.00;3.05;;;9.50;99.90;;;;;;5093945;28;20505;-63
2023/01/11 12:22:17;;;;;;;3.50;2.50;;;9.50;99.90;;;;;;5094383;28;20402;-64
2023/01/11 12:24:45;;;;;;;3.42;2.50;;;9.50;99.90;;;;;;5093754;28;20453;-65
2023/01/11 12:27:24;;;;;;;4.18;3.10;;;9.50;99.90;;;;;;5093661;28;20433;-64
2023/01/11 12:30:07;;;;;;;5.30;3.70;;;9.50;99.90;;;;;;5093330;28;20410;-64
2023/01/11 12:33:07;;;;;;;5.13;4.22;;;9.50;99.90;;;;;;5097712;28;20779;-65
2023/01/11 12:35:45;;;;;;;4.28;3.20;;;9.50;99.90;;;;;;5097980;28;20480;-66
2023/01/11 12:38:23;;;;;;;5.00;3.10;;;9.50;99.90;;;;;;5097907;28;20417;-65
2023/01/11 12:41:01;;;;;;;4.15;2.83;;;9.60;99.90;;;;;;5099121;28;20501;-64
2023/01/11 12:43:42;;;;;;;6.90;3.20;;;9.60;99.90;;;;;;5099850;28;20413;-64
2023/01/11 12:46:20;;;;;;;3.92;2.67;;;9.60;99.90;;;;;;5103812;28;20873;-65
2023/01/11 12:49:02;;;;;;;3.97;2.60;;;9.60;99.90;;;;;;5099878;28;20421;-65
2023/01/11 12:51:46;;;;;;;5.35;2.90;;;9.60;99.90;;;;;;5098062;28;20491;-65
2023/01/11 12:54:36;;;;;;;5.00;2.40;;;9.60;99.90;;;;;;5097851;28;20766;-65
2023/01/11 12:57:18;;;;;;;2.60;2.40;;;9.60;99.90;;;;;;5097528;28;20490;-65
2023/01/11 13:00:13;;;;;;;4.38;2.88;;;9.60;99.90;;;;;;5096910;28;20505;-65
2023/01/11 13:03:05;;;;;;;4.40;2.60;;;9.70;99.90;;;;;;5096932;28;20441;-64
2023/01/11 13:05:39;;;;;;;3.30;2.40;;;9.70;99.90;;;;;;5087784;28;20425;-64
2023/01/11 13:08:14;;;;;;;4.00;2.80;;;9.80;99.90;;;;;;5094893;28;20430;-65
2023/01/11 13:10:56;;;;;;;6.05;3.10;;;9.80;99.90;;;;;;5095035;28;20413;-65
2023/01/11 13:13:30;;;;;;;6.28;3.47;;;9.90;99.90;;;;;;5095762;28;20516;-65
2023/01/11 13:16:03;;;;;;;4.32;3.40;;;9.90;99.90;;;;;;5095416;28;20409;-66
2023/01/11 13:18:38;;;;;;;4.15;3.00;;;9.90;99.90;;;;;;5095707;28;20909;-63
2023/01/11 13:21:17;;;;;;;4.50;2.92;;;10.00;99.90;;;;;;5093522;28;20520;-65
2023/01/11 13:23:47;;;;;;;7.22;3.50;;;10.00;99.90;;;;;;5089940;28;20425;-66
2023/01/11 13:26:21;;;;;;;6.30;3.30;;;10.00;99.90;;;;;;5095666;28;20492;-65
2023/01/11 13:28:52;;;;;;;5.30;3.60;;;10.00;99.90;;;;;;5096284;28;20800;-65
2023/01/11 13:31:19;;;;;;;5.43;3.90;;;10.00;99.90;;;;;;5096519;28;20788;-65
2023/01/11 13:33:53;;;;;;;7.35;4.00;;;10.00;99.90;;;;;;5083788;28;20538;-65
2023/01/11 13:36:26;;;;;;;7.82;4.28;;;10.00;99.90;;;;;;5090057;28;20512;-65
2023/01/11 13:38:58;;;;;;;8.38;4.25;;;10.10;99.90;;;;;;5082665;28;20437;-65
2023/01/11 13:41:31;;;;;;;10.43;4.50;;;10.10;99.90;;;;;;5093997;28;20917;-66